Time;durP1;ratioP1;P1;durP2;ratioP2;P2;SDS_P1;SDS_P2;PMS_P1;PMS_P2;Temp;Humidity;BMP_temperature;BMP_pressure;BME280_temperature;BME280_humidity;BME280_pressure;Samples;Min_cycle;Max_cycle;Signal;HPM_P1;HPM_P2
2022/03/28 00:01:14;;;;;;;17.10;13.97;;;;;;;;;;4930454;29;20435;-94
2022/03/28 00:03:40;;;;;;;14.37;12.43;;;;;;;;;;4919091;29;20430;-94
2022/03/28 00:06:09;;;;;;;22.73;13.20;;;;;;;;;;4904913;29;20695;-94
2022/03/28 00:08:36;;;;;;;18.17;13.80;;;;;;;;;;4938076;29;20435;-95
2022/03/28 00:11:02;;;;;;;16.97;12.20;;;;;;;;;;4916988;29;20419;-93
2022/03/28 00:13:28;;;;;;;16.20;13.03;;;;;;;;;;4935395;29;20582;-92
2022/03/28 00:15:54;;;;;;;15.00;12.70;;;;;;;;;;4896165;29;20760;-92
2022/03/28 00:18:20;;;;;;;15.00;12.63;;;;;;;;;;4903539;29;20477;-92
2022/03/28 00:20:49;;;;;;;14.10;12.70;;;;;;;;;;4935117;29;20453;-93
2022/03/28 00:23:15;;;;;;;18.93;12.90;;;;;;;;;;4920140;29;20467;-93
2022/03/28 00:25:44;;;;;;;18.00;14.03;;;;;;;;;;4944221;29;20559;-93
2022/03/28 00:28:10;;;;;;;18.07;13.70;;;;;;;;;;4922458;29;20819;-96
2022/03/28 00:30:36;;;;;;;19.50;12.77;;;;;;;;;;4927367;29;20495;-94
2022/03/28 00:33:04;;;;;;;15.40;12.70;;;;;;;;;;4923877;29;20450;-93
2022/03/28 00:35:30;;;;;;;15.10;12.13;;;;;;;;;;4924158;29;20503;-93
2022/03/28 00:37:57;;;;;;;19.30;13.33;;;;;;;;;;4929508;29;20471;-93
2022/03/28 00:40:23;;;;;;;15.00;12.40;;;;;;;;;;4926292;29;20443;-93
2022/03/28 00:42:51;;;;;;;23.13;14.10;;;;;;;;;;4913344;29;20460;-93
2022/03/28 00:45:18;;;;;;;19.63;13.07;;;;;;;;;;4927589;29;20437;-94
2022/03/28 00:47:44;;;;;;;17.50;14.07;;;;;;;;;;4920413;29;20447;-94
2022/03/28 00:50:10;;;;;;;19.80;14.50;;;;;;;;;;4939620;29;20439;-93
2022/03/28 00:52:37;;;;;;;18.87;13.20;;;;;;;;;;4941928;29;20815;-95
2022/03/28 00:55:04;;;;;;;19.87;14.03;;;;;;;;;;4941254;29;20820;-94
2022/03/28 00:57:30;;;;;;;20.10;14.00;;;;;;;;;;4921621;29;20439;-94
2022/03/28 01:00:00;;;;;;;14.43;12.43;;;;;;;;;;4940198;29;20483;-94
2022/03/28 01:02:27;;;;;;;22.90;14.40;;;;;;;;;;4920774;29;20446;-93
2022/03/28 01:04:53;;;;;;;19.93;13.27;;;;;;;;;;4922032;29;20443;-94
2022/03/28 01:07:19;;;;;;;16.87;13.10;;;;;;;;;;4928884;29;20526;-93
2022/03/28 01:09:45;;;;;;;17.57;13.00;;;;;;;;;;4940708;29;20485;-94
2022/03/28 01:12:18;;;;;;;19.97;13.73;;;;;;;;;;4943332;29;20451;-94
2022/03/28 01:14:44;;;;;;;17.63;13.83;;;;;;;;;;4926718;29;20450;-93
2022/03/28 01:19:56;;;;;;;14.80;13.07;;;;;;;;;;4937937;29;20534;-95
2022/03/28 01:22:22;;;;;;;22.93;14.23;;;;;;;;;;4956699;29;20431;-93
2022/03/28 01:24:48;;;;;;;21.57;13.40;;;;;;;;;;4936481;29;20470;-94
2022/03/28 01:27:14;;;;;;;18.33;13.47;;;;;;;;;;4962996;23;21037;-85
2022/03/28 01:29:43;;;;;;;17.13;13.43;;;;;;;;;;4929789;29;20435;-84
2022/03/28 01:32:10;;;;;;;18.80;13.33;;;;;;;;;;4938300;28;20442;-84
2022/03/28 01:34:36;;;;;;;18.50;13.63;;;;;;;;;;4925925;29;20796;-85
2022/03/28 01:37:02;;;;;;;19.77;14.23;;;;;;;;;;4920522;29;20763;-84
2022/03/28 01:39:28;;;;;;;15.63;11.90;;;;;;;;;;4921560;29;20963;-84
2022/03/28 01:41:55;;;;;;;16.90;12.73;;;;;;;;;;4916661;29;20442;-85
2022/03/28 01:44:21;;;;;;;17.13;12.87;;;;;;;;;;4924833;29;20957;-85
2022/03/28 01:46:47;;;;;;;17.77;14.57;;;;;;;;;;4935892;28;20438;-85
2022/03/28 01:49:14;;;;;;;18.80;13.37;;;;;;;;;;4936534;28;20778;-84
2022/03/28 01:51:40;;;;;;;16.63;12.03;;;;;;;;;;4930890;29;20909;-85
2022/03/28 01:54:06;;;;;;;16.67;12.90;;;;;;;;;;4921501;29;20991;-84
2022/03/28 01:56:36;;;;;;;16.20;13.23;;;;;;;;;;4932872;28;20437;-85
2022/03/28 01:59:03;;;;;;;14.10;11.57;;;;;;;;;;4921297;29;20471;-85
2022/03/28 02:01:29;;;;;;;19.03;13.67;;;;;;;;;;4915638;29;20446;-84
2022/03/28 02:03:55;;;;;;;15.60;11.70;;;;;;;;;;4913614;29;20987;-83
2022/03/28 02:06:21;;;;;;;16.60;12.50;;;;;;;;;;4938256;28;20443;-84
2022/03/28 02:08:47;;;;;;;13.30;11.67;;;;;;;;;;4943991;28;20419;-84
2022/03/28 02:11:13;;;;;;;16.07;12.77;;;;;;;;;;4920762;29;20454;-83
2022/03/28 02:13:39;;;;;;;18.33;12.87;;;;;;;;;;4947471;28;21147;-83
2022/03/28 02:16:06;;;;;;;18.67;13.53;;;;;;;;;;4913314;29;20440;-84
2022/03/28 02:18:32;;;;;;;19.80;13.13;;;;;;;;;;4921100;29;20515;-84
2022/03/28 02:20:58;;;;;;;16.50;12.20;;;;;;;;;;4928618;29;20981;-84
2022/03/28 02:23:24;;;;;;;18.27;12.90;;;;;;;;;;4916708;29;20993;-84
2022/03/28 02:25:50;;;;;;;15.80;12.10;;;;;;;;;;4943467;28;20851;-84
2022/03/28 02:28:17;;;;;;;18.23;13.10;;;;;;;;;;4899900;29;20582;-85
2022/03/28 02:30:43;;;;;;;15.90;12.10;;;;;;;;;;4913616;29;20848;-87
2022/03/28 02:33:09;;;;;;;17.93;12.70;;;;;;;;;;4905538;29;20739;-84
2022/03/28 02:35:36;;;;;;;19.00;13.67;;;;;;;;;;4914999;29;20451;-84
2022/03/28 02:38:03;;;;;;;17.03;11.57;;;;;;;;;;4921623;28;20479;-84
2022/03/28 02:40:29;;;;;;;20.40;14.00;;;;;;;;;;4941428;28;20454;-84
2022/03/28 02:42:59;;;;;;;14.63;11.57;;;;;;;;;;4922194;29;20419;-84
2022/03/28 02:45:30;;;;;;;17.80;12.70;;;;;;;;;;4938745;28;20665;-84
2022/03/28 02:47:56;;;;;;;19.80;13.10;;;;;;;;;;4925848;28;20443;-81
2022/03/28 02:50:22;;;;;;;18.37;13.70;;;;;;;;;;4928252;29;20454;-85
2022/03/28 02:52:48;;;;;;;16.20;12.20;;;;;;;;;;4909584;29;20446;-84
2022/03/28 02:55:15;;;;;;;18.23;12.77;;;;;;;;;;4920100;29;20430;-83
2022/03/28 02:57:42;;;;;;;15.30;13.63;;;;;;;;;;4914563;29;20569;-85
2022/03/28 03:00:10;;;;;;;24.23;13.17;;;;;;;;;;4924170;29;20438;-84
2022/03/28 03:02:36;;;;;;;18.97;13.97;;;;;;;;;;4903923;29;20963;-83
2022/03/28 03:05:03;;;;;;;15.63;13.23;;;;;;;;;;4920598;29;20443;-84
2022/03/28 03:07:29;;;;;;;19.13;13.57;;;;;;;;;;4905306;29;20577;-83
2022/03/28 03:09:55;;;;;;;18.00;13.23;;;;;;;;;;4913348;29;20542;-84
2022/03/28 03:12:21;;;;;;;17.37;13.33;;;;;;;;;;4926498;29;20470;-83
2022/03/28 03:14:47;;;;;;;19.03;13.63;;;;;;;;;;4948825;28;20517;-85
2022/03/28 03:17:13;;;;;;;15.90;12.50;;;;;;;;;;4917758;29;20461;-84
2022/03/28 03:19:40;;;;;;;14.57;12.20;;;;;;;;;;4925533;29;20584;-84
2022/03/28 03:22:07;;;;;;;18.80;14.40;;;;;;;;;;4927701;29;20442;-85
2022/03/28 03:24:34;;;;;;;19.10;11.93;;;;;;;;;;4908142;29;20440;-85
2022/03/28 03:27:00;;;;;;;16.10;12.30;;;;;;;;;;4921978;28;20454;-85
2022/03/28 03:29:26;;;;;;;18.33;12.70;;;;;;;;;;4912727;29;20431;-85
2022/03/28 03:31:52;;;;;;;19.97;13.63;;;;;;;;;;4936142;28;21120;-85
2022/03/28 03:34:19;;;;;;;19.00;13.47;;;;;;;;;;4932292;29;20651;-84
2022/03/28 03:36:46;;;;;;;16.40;12.43;;;;;;;;;;4916661;29;20426;-84
2022/03/28 03:39:12;;;;;;;18.77;14.37;;;;;;;;;;4931827;29;20473;-85
2022/03/28 03:41:38;;;;;;;19.63;13.43;;;;;;;;;;4915200;29;20458;-83
2022/03/28 03:44:06;;;;;;;21.27;13.13;;;;;;;;;;4920775;29;20487;-81
2022/03/28 03:46:32;;;;;;;17.60;12.80;;;;;;;;;;4935115;28;20935;-81
2022/03/28 03:48:58;;;;;;;17.37;13.60;;;;;;;;;;4925275;29;20926;-81
2022/03/28 03:51:24;;;;;;;15.97;12.97;;;;;;;;;;4938706;28;20584;-81
2022/03/28 03:53:50;;;;;;;19.90;14.83;;;;;;;;;;4912274;29;20435;-81
2022/03/28 03:56:16;;;;;;;15.93;12.63;;;;;;;;;;4921020;29;20950;-81
2022/03/28 03:58:42;;;;;;;19.37;13.67;;;;;;;;;;4932250;28;20565;-81
2022/03/28 04:01:09;;;;;;;19.23;13.80;;;;;;;;;;4945164;28;20426;-81
2022/03/28 04:03:38;;;;;;;17.13;13.33;;;;;;;;;;4939387;28;20521;-81
2022/03/28 04:06:05;;;;;;;20.23;14.47;;;;;;;;;;4931300;29;20555;-81
2022/03/28 04:08:31;;;;;;;19.17;13.43;;;;;;;;;;4916670;29;20458;-81
2022/03/28 04:10:58;;;;;;;22.10;14.23;;;;;;;;;;4947662;28;20452;-81
2022/03/28 04:13:24;;;;;;;22.70;14.00;;;;;;;;;;4916153;29;20471;-81
2022/03/28 04:15:51;;;;;;;21.40;13.97;;;;;;;;;;4928859;29;20518;-81
2022/03/28 04:18:17;;;;;;;20.43;15.20;;;;;;;;;;4908354;29;20487;-82
2022/03/28 04:20:43;;;;;;;18.90;14.70;;;;;;;;;;4938825;28;20427;-80
2022/03/28 04:23:09;;;;;;;20.10;12.30;;;;;;;;;;4901386;29;20451;-81
2022/03/28 04:25:35;;;;;;;20.63;13.67;;;;;;;;;;4937297;28;20438;-81
2022/03/28 04:28:01;;;;;;;19.07;13.50;;;;;;;;;;4928958;28;20993;-80
2022/03/28 04:30:33;;;;;;;19.50;14.33;;;;;;;;;;4947483;28;20790;-84
2022/03/28 04:32:59;;;;;;;21.20;14.63;;;;;;;;;;4909994;29;20498;-81
2022/03/28 04:35:25;;;;;;;28.43;14.10;;;;;;;;;;4940216;28;20449;-81
2022/03/28 04:38:11;;;;;;;21.27;14.47;;;;;;;;;;4908689;29;20478;-82
2022/03/28 04:40:43;;;;;;;28.37;15.20;;;;;;;;;;4932797;29;20415;-82
2022/03/28 04:43:09;;;;;;;20.30;14.63;;;;;;;;;;4911052;29;20898;-81
2022/03/28 04:45:35;;;;;;;26.93;14.70;;;;;;;;;;4926175;29;20439;-79
2022/03/28 04:48:02;;;;;;;25.50;16.13;;;;;;;;;;4912518;29;20539;-81
2022/03/28 04:50:28;;;;;;;24.07;12.90;;;;;;;;;;4939557;28;20445;-81
2022/03/28 04:52:58;;;;;;;23.30;15.77;;;;;;;;;;4917631;29;20512;-82
2022/03/28 04:55:24;;;;;;;23.90;12.83;;;;;;;;;;4934862;28;20470;-82
2022/03/28 04:57:50;;;;;;;25.20;15.70;;;;;;;;;;4907351;29;21007;-81
2022/03/28 05:00:19;;;;;;;24.43;15.30;;;;;;;;;;4942715;28;20449;-82
2022/03/28 05:02:45;;;;;;;20.33;15.77;;;;;;;;;;4905147;29;20451;-81
2022/03/28 05:05:11;;;;;;;24.40;14.27;;;;;;;;;;4915830;29;20430;-83
2022/03/28 05:07:38;;;;;;;20.63;14.73;;;;;;;;;;4909436;29;20444;-86
2022/03/28 05:10:05;;;;;;;21.37;15.50;;;;;;;;;;4932703;29;20459;-87
2022/03/28 05:12:31;;;;;;;20.50;14.80;;;;;;;;;;4938239;29;20962;-85
2022/03/28 05:15:00;;;;;;;24.60;14.77;;;;;;;;;;4941916;29;20798;-88
2022/03/28 05:17:28;;;;;;;23.20;14.70;;;;;;;;;;4943530;28;20454;-85
2022/03/28 05:19:58;;;;;;;28.73;15.87;;;;;;;;;;4934322;29;20546;-88
2022/03/28 05:22:29;;;;;;;20.10;14.70;;;;;;;;;;4924892;29;20435;-88
2022/03/28 05:24:58;;;;;;;23.50;15.33;;;;;;;;;;4935093;29;20482;-87
2022/03/28 05:27:28;;;;;;;21.50;15.03;;;;;;;;;;4936941;29;20809;-88
2022/03/28 05:29:54;;;;;;;21.93;14.80;;;;;;;;;;4925819;29;20647;-88
2022/03/28 05:32:21;;;;;;;26.43;18.63;;;;;;;;;;4941897;28;20418;-83
2022/03/28 05:34:47;;;;;;;23.40;14.67;;;;;;;;;;4566726;29;10000515;-87
2022/03/28 05:37:14;;;;;;;16.83;13.27;;;;;;;;;;4940176;29;20194;-88
2022/03/28 05:39:44;;;;;;;19.60;13.80;;;;;;;;;;4956448;28;20473;-83
2022/03/28 05:42:10;;;;;;;19.73;14.93;;;;;;;;;;4986377;23;20503;-83
2022/03/28 05:44:38;;;;;;;22.30;15.07;;;;;;;;;;4924601;29;20427;-81
2022/03/28 05:47:05;;;;;;;19.73;15.53;;;;;;;;;;4915005;29;20441;-82
2022/03/28 05:49:31;;;;;;;24.20;15.17;;;;;;;;;;4913034;29;20442;-83
2022/03/28 05:51:57;;;;;;;23.50;14.20;;;;;;;;;;4927325;29;20427;-81
2022/03/28 05:54:23;;;;;;;24.27;13.60;;;;;;;;;;4930906;29;20791;-81
2022/03/28 05:56:49;;;;;;;21.30;13.50;;;;;;;;;;4915757;29;20985;-82
2022/03/28 05:59:16;;;;;;;19.50;14.40;;;;;;;;;;4930057;29;20533;-83
2022/03/28 06:01:42;;;;;;;22.60;15.40;;;;;;;;;;4907994;29;20482;-83
2022/03/28 06:04:08;;;;;;;22.43;14.00;;;;;;;;;;4915677;28;20687;-83
2022/03/28 06:06:34;;;;;;;19.33;12.90;;;;;;;;;;4937799;28;20430;-82
2022/03/28 06:09:00;;;;;;;20.13;12.40;;;;;;;;;;4911167;29;20447;-84
2022/03/28 06:12:00;;;;;;;19.03;11.90;;;;;;;;;;4896953;29;20956;-84
2022/03/28 06:14:26;;;;;;;18.70;13.97;;;;;;;;;;4931428;28;20842;-86
2022/03/28 06:17:02;;;;;;;18.50;13.33;;;;;;;;;;4911757;29;20486;-84
2022/03/28 06:19:30;;;;;;;18.37;13.37;;;;;;;;;;4921996;28;20486;-84
2022/03/28 06:21:56;;;;;;;19.20;13.73;;;;;;;;;;4914775;29;20458;-84
2022/03/28 06:24:22;;;;;;;17.23;11.60;;;;;;;;;;4910040;28;20856;-83
2022/03/28 06:26:48;;;;;;;22.87;11.97;;;;;;;;;;4916916;29;20790;-83
2022/03/28 06:29:15;;;;;;;21.47;12.80;;;;;;;;;;4917218;29;20811;-83
2022/03/28 06:31:41;;;;;;;16.13;13.17;;;;;;;;;;4913389;29;20447;-83
2022/03/28 06:34:08;;;;;;;24.63;14.63;;;;;;;;;;4927108;28;20975;-84
2022/03/28 06:36:34;;;;;;;17.63;13.50;;;;;;;;;;4916076;29;20458;-84
2022/03/28 06:39:02;;;;;;;18.50;12.43;;;;;;;;;;4910336;29;20475;-84
2022/03/28 06:41:28;;;;;;;20.37;12.80;;;;;;;;;;4911572;29;20439;-85
2022/03/28 06:43:55;;;;;;;15.13;13.33;;;;;;;;;;4911233;29;20471;-83
2022/03/28 06:46:21;;;;;;;18.27;13.77;;;;;;;;;;4898405;29;20447;-83
2022/03/28 06:48:49;;;;;;;19.33;13.90;;;;;;;;;;4897494;29;20513;-84
2022/03/28 06:51:15;;;;;;;21.40;13.20;;;;;;;;;;4890276;29;20449;-83
2022/03/28 06:53:42;;;;;;;15.87;12.47;;;;;;;;;;4896246;29;20439;-84
2022/03/28 06:56:08;;;;;;;20.63;14.23;;;;;;;;;;4902582;29;20415;-83
2022/03/28 06:58:34;;;;;;;22.10;14.20;;;;;;;;;;4916702;29;20666;-81
2022/03/28 07:01:00;;;;;;;17.40;13.10;;;;;;;;;;4900099;29;20527;-83
2022/03/28 07:03:26;;;;;;;16.00;12.63;;;;;;;;;;4890094;29;20484;-83
2022/03/28 07:05:52;;;;;;;19.73;15.37;;;;;;;;;;4899825;29;20436;-83
2022/03/28 07:08:18;;;;;;;16.83;13.70;;;;;;;;;;4903447;29;20895;-85
2022/03/28 07:10:45;;;;;;;19.03;14.73;;;;;;;;;;4904117;29;20799;-82
2022/03/28 07:13:11;;;;;;;17.90;14.03;;;;;;;;;;4903637;29;20435;-82
2022/03/28 07:15:37;;;;;;;17.90;15.40;;;;;;;;;;4905341;29;20440;-82
2022/03/28 07:18:06;;;;;;;18.20;15.37;;;;;;;;;;4906366;29;21089;-82
2022/03/28 07:20:32;;;;;;;16.10;14.00;;;;;;;;;;4901438;29;20435;-82
2022/03/28 07:22:59;;;;;;;18.13;15.10;;;;;;;;;;4913623;29;20424;-84
2022/03/28 07:25:25;;;;;;;18.67;16.13;;;;;;;;;;4895659;29;20452;-84
2022/03/28 07:27:52;;;;;;;17.47;15.60;;;;;;;;;;4905839;29;20431;-82
2022/03/28 07:30:20;;;;;;;17.37;15.10;;;;;;;;;;4912752;29;20460;-84
2022/03/28 07:32:46;;;;;;;16.50;14.87;;;;;;;;;;4912517;29;20945;-81
2022/03/28 07:35:14;;;;;;;15.80;14.10;;;;;;;;;;4892791;29;20483;-82
2022/03/28 07:37:43;;;;;;;19.20;16.57;;;;;;;;;;4929159;29;20776;-84
2022/03/28 07:40:10;;;;;;;18.30;16.20;;;;;;;;;;4882467;29;21082;-83
2022/03/28 07:42:37;;;;;;;19.90;16.87;;;;;;;;;;4894555;29;20487;-83
2022/03/28 07:45:08;;;;;;;18.77;16.77;;;;;;;;;;4916558;29;20434;-84
2022/03/28 07:47:52;;;;;;;19.67;16.77;;;;;;;;;;4901944;29;20784;-78
2022/03/28 07:50:18;;;;;;;19.93;16.40;;;;;;;;;;4898599;29;20440;-83
2022/03/28 07:52:46;;;;;;;22.50;18.40;;;;;;;;;;4915036;29;20435;-86
2022/03/28 07:55:13;;;;;;;24.67;18.23;;;;;;;;;;4915908;29;20515;-84
2022/03/28 07:57:39;;;;;;;23.57;19.37;;;;;;;;;;4927445;29;20773;-85
2022/03/28 08:00:12;;;;;;;19.87;16.50;;;;;;;;;;4553255;29;10000292;-86
2022/03/28 08:02:39;;;;;;;20.50;17.50;;;;;;;;;;4898845;29;20655;-86
2022/03/28 08:05:07;;;;;;;21.70;19.40;;;;;;;;;;4908502;29;20955;-83
2022/03/28 08:07:33;;;;;;;18.57;16.87;;;;;;;;;;4908297;29;20439;-84
2022/03/28 08:09:59;;;;;;;20.20;17.60;;;;;;;;;;4911748;29;20859;-80
2022/03/28 08:12:30;;;;;;;20.07;17.93;;;;;;;;;;4919894;29;20795;-85
2022/03/28 08:14:56;;;;;;;22.37;20.00;;;;;;;;;;4893935;29;20815;-84
2022/03/28 08:17:23;;;;;;;20.70;18.70;;;;;;;;;;4917699;29;20446;-85
2022/03/28 08:19:49;;;;;;;19.67;17.67;;;;;;;;;;4894589;29;20585;-86
2022/03/28 08:22:17;;;;;;;21.30;18.67;;;;;;;;;;4901742;29;20979;-85
2022/03/28 08:24:44;;;;;;;21.90;19.63;;;;;;;;;;4898221;29;20549;-85
2022/03/28 08:27:10;;;;;;;20.13;18.00;;;;;;;;;;4896412;29;20929;-85
2022/03/28 08:29:36;;;;;;;20.43;18.07;;;;;;;;;;4894527;29;20461;-85
2022/03/28 08:32:11;;;;;;;21.30;19.00;;;;;;;;;;4891082;29;21002;-85
2022/03/28 08:34:37;;;;;;;20.53;18.63;;;;;;;;;;4900253;29;20917;-85
2022/03/28 08:37:06;;;;;;;21.73;19.57;;;;;;;;;;4900608;29;20514;-91
2022/03/28 08:39:32;;;;;;;19.73;17.87;;;;;;;;;;4901373;29;20586;-90
2022/03/28 08:42:18;;;;;;;19.53;17.83;;;;;;;;;;4909031;29;20546;-89
2022/03/28 08:44:44;;;;;;;17.93;16.23;;;;;;;;;;4922072;29;20491;-89
2022/03/28 08:47:13;;;;;;;20.17;18.20;;;;;;;;;;4904595;29;20523;-88
2022/03/28 08:49:39;;;;;;;20.47;18.57;;;;;;;;;;4901491;29;20994;-90
2022/03/28 08:52:10;;;;;;;19.33;17.63;;;;;;;;;;4909544;29;20446;-91
2022/03/28 08:55:02;;;;;;;20.30;18.50;;;;;;;;;;4890037;29;21012;-88
2022/03/28 08:57:28;;;;;;;19.23;17.50;;;;;;;;;;4903134;29;20436;-85
2022/03/28 08:59:58;;;;;;;19.87;18.07;;;;;;;;;;4903548;29;20504;-87
2022/03/28 09:02:44;;;;;;;19.20;17.37;;;;;;;;;;4911071;29;20480;-85
2022/03/28 09:05:14;;;;;;;21.43;19.33;;;;;;;;;;4897132;29;20440;-86
2022/03/28 09:07:41;;;;;;;21.43;19.40;;;;;;;;;;4917472;29;20443;-86
2022/03/28 09:10:08;;;;;;;22.80;20.70;;;;;;;;;;4912863;29;20512;-85
2022/03/28 09:12:41;;;;;;;22.87;18.73;;;;;;;;;;4897757;29;20447;-84
2022/03/28 09:15:14;;;;;;;23.20;20.70;;;;;;;;;;4877238;29;20943;-84
2022/03/28 09:17:41;;;;;;;20.63;18.67;;;;;;;;;;4886555;29;20885;-83
2022/03/28 09:20:07;;;;;;;24.20;21.87;;;;;;;;;;4898550;29;21033;-84
2022/03/28 09:22:35;;;;;;;23.30;21.07;;;;;;;;;;4895890;29;20443;-86
2022/03/28 09:25:09;;;;;;;23.73;21.40;;;;;;;;;;4885127;29;20983;-85
2022/03/28 09:27:39;;;;;;;23.33;20.93;;;;;;;;;;4898873;29;21000;-86
2022/03/28 09:30:12;;;;;;;22.80;20.70;;;;;;;;;;4905534;29;20611;-85
2022/03/28 09:32:41;;;;;;;21.50;19.33;;;;;;;;;;4898606;29;20969;-86
2022/03/28 09:35:21;;;;;;;23.80;21.40;;;;;;;;;;4895246;29;20680;-87
2022/03/28 09:37:58;;;;;;;21.47;19.57;;;;;;;;;;4907828;29;20440;-87
2022/03/28 09:40:29;;;;;;;21.50;19.57;;;;;;;;;;4895618;29;20475;-85
2022/03/28 09:42:56;;;;;;;22.07;19.90;;;;;;;;;;4916117;29;20458;-88
2022/03/28 09:45:25;;;;;;;22.47;20.27;;;;;;;;;;4893916;29;20428;-86
2022/03/28 09:47:59;;;;;;;22.07;20.03;;;;;;;;;;4896742;29;20431;-84
2022/03/28 09:50:39;;;;;;;20.93;19.07;;;;;;;;;;4897277;29;20443;-87
2022/03/28 09:53:12;;;;;;;23.23;21.20;;;;;;;;;;4893921;29;20452;-86
2022/03/28 09:55:47;;;;;;;23.07;20.77;;;;;;;;;;4913974;29;20771;-87
2022/03/28 09:58:32;;;;;;;22.50;20.60;;;;;;;;;;4899130;29;20479;-86
2022/03/28 10:00:58;;;;;;;21.70;19.53;;;;;;;;;;4906301;29;20432;-87
2022/03/28 10:03:25;;;;;;;22.00;20.10;;;;;;;;;;4908675;29;20512;-86
2022/03/28 10:05:51;;;;;;;21.97;19.87;;;;;;;;;;4894327;29;20452;-87
2022/03/28 10:08:18;;;;;;;23.83;21.50;;;;;;;;;;4924826;29;20444;-84
2022/03/28 10:10:44;;;;;;;23.07;20.70;;;;;;;;;;4901716;29;20767;-85
2022/03/28 10:13:11;;;;;;;23.70;21.60;;;;;;;;;;4897843;29;20466;-85
2022/03/28 10:15:37;;;;;;;25.03;22.53;;;;;;;;;;4896368;29;20519;-86
2022/03/28 10:18:07;;;;;;;24.50;22.30;;;;;;;;;;4900935;29;20544;-85
2022/03/28 10:20:35;;;;;;;24.40;22.20;;;;;;;;;;4905785;29;20427;-86
2022/03/28 10:23:21;;;;;;;24.27;22.20;;;;;;;;;;4918499;29;20439;-85
2022/03/28 10:25:48;;;;;;;27.93;25.23;;;;;;;;;;4896162;29;20428;-85
2022/03/28 10:28:19;;;;;;;27.77;25.20;;;;;;;;;;4894943;29;20448;-85
2022/03/28 10:30:45;;;;;;;27.20;24.50;;;;;;;;;;4896889;29;20496;-84
2022/03/28 10:33:14;;;;;;;27.07;24.43;;;;;;;;;;4910073;29;20688;-85
2022/03/28 10:35:55;;;;;;;27.70;25.03;;;;;;;;;;4895833;29;20431;-83
2022/03/28 10:38:22;;;;;;;27.67;25.07;;;;;;;;;;4888687;29;20829;-84
2022/03/28 10:40:54;;;;;;;26.87;24.17;;;;;;;;;;4876762;29;20425;-87
2022/03/28 10:43:20;;;;;;;27.53;24.67;;;;;;;;;;4879385;29;20486;-86
2022/03/28 10:45:51;;;;;;;27.00;24.50;;;;;;;;;;4895655;29;20428;-83
2022/03/28 10:48:18;;;;;;;28.53;25.70;;;;;;;;;;4888579;29;20580;-86
2022/03/28 10:50:51;;;;;;;31.43;27.97;;;;;;;;;;4876588;29;20964;-88
2022/03/28 10:53:17;;;;;;;27.97;25.30;;;;;;;;;;4882670;29;20444;-86
2022/03/28 10:55:45;;;;;;;26.87;24.30;;;;;;;;;;4917342;29;20427;-87
2022/03/28 10:58:16;;;;;;;26.87;24.47;;;;;;;;;;4909560;29;20501;-85
2022/03/28 11:01:01;;;;;;;26.17;23.67;;;;;;;;;;4903959;29;20455;-85
2022/03/28 11:03:37;;;;;;;28.63;25.60;;;;;;;;;;4911886;29;20468;-85
2022/03/28 11:06:03;;;;;;;29.20;26.20;;;;;;;;;;4895108;29;20599;-85
2022/03/28 11:08:36;;;;;;;26.80;23.87;;;;;;;;;;4894279;29;20471;-84
2022/03/28 11:11:22;;;;;;;26.73;24.13;;;;;;;;;;4904835;29;20828;-83
2022/03/28 11:13:58;;;;;;;27.60;24.70;;;;;;;;;;4895326;29;20487;-85
2022/03/28 11:16:44;;;;;;;28.30;25.40;;;;;;;;;;4894982;29;20451;-84
2022/03/28 11:19:35;;;;;;;29.00;26.10;;;;;;;;;;4883249;29;20494;-82
2022/03/28 11:22:01;;;;;;;25.60;23.23;;;;;;;;;;4893183;29;20524;-87
2022/03/28 11:24:48;;;;;;;28.23;25.53;;;;;;;;;;4901536;29;20453;-88
2022/03/28 11:27:14;;;;;;;26.40;23.80;;;;;;;;;;4912637;29;20462;-86
2022/03/28 11:29:41;;;;;;;27.20;24.43;;;;;;;;;;4881082;29;20456;-87
2022/03/28 11:32:17;;;;;;;25.40;22.90;;;;;;;;;;4909556;29;20937;-86
2022/03/28 11:34:53;;;;;;;25.83;23.37;;;;;;;;;;4901346;29;20442;-86
2022/03/28 11:37:22;;;;;;;28.20;25.50;;;;;;;;;;4904446;29;20420;-85
2022/03/28 11:39:55;;;;;;;26.83;24.13;;;;;;;;;;4906614;29;20479;-85
2022/03/28 11:42:27;;;;;;;27.20;24.60;;;;;;;;;;4923607;23;20556;-87
2022/03/28 11:47:56;;;;;;;28.70;25.80;;;;;;;;;;4178559;27;20527;-86
2022/03/28 11:50:23;;;;;;;27.10;24.50;;;;;;;;;;4910171;29;20582;-84
2022/03/28 11:52:50;;;;;;;26.97;24.33;;;;;;;;;;4894909;29;20416;-85
2022/03/28 11:55:25;;;;;;;25.70;23.27;;;;;;;;;;4911047;29;20420;-83
2022/03/28 12:00:37;;;;;;;24.53;22.37;;;;;;;;;;4223622;29;10000727;-85
2022/03/28 12:03:03;;;;;;;27.03;24.03;;;;;;;;;;4890966;29;20272;-84
2022/03/28 12:05:29;;;;;;;26.50;24.03;;;;;;;;;;4907272;29;20436;-85
2022/03/28 12:07:55;;;;;;;26.10;23.63;;;;;;;;;;4909030;29;20828;-83
2022/03/28 12:10:26;;;;;;;26.30;23.90;;;;;;;;;;4891214;29;20490;-84
2022/03/28 12:12:53;;;;;;;24.57;22.17;;;;;;;;;;4874479;29;20440;-84
2022/03/28 12:15:26;;;;;;;26.80;24.13;;;;;;;;;;4890484;29;20817;-83
2022/03/28 12:17:52;;;;;;;27.50;24.63;;;;;;;;;;4896897;29;20432;-85
2022/03/28 12:20:23;;;;;;;26.97;24.37;;;;;;;;;;4910270;29;20906;-84
2022/03/28 12:22:50;;;;;;;26.30;23.80;;;;;;;;;;4895324;29;20428;-83
2022/03/28 12:25:30;;;;;;;27.87;25.03;;;;;;;;;;4906651;29;20452;-83
2022/03/28 12:27:58;;;;;;;28.47;25.47;;;;;;;;;;4910119;29;20962;-84
2022/03/28 12:30:50;;;;;;;27.27;24.40;;;;;;;;;;4909524;29;20491;-80
2022/03/28 12:33:18;;;;;;;31.00;27.87;;;;;;;;;;4889735;29;20423;-82
2022/03/28 12:35:49;;;;;;;31.17;27.87;;;;;;;;;;4891791;29;20447;-82
2022/03/28 12:38:20;;;;;;;30.07;26.80;;;;;;;;;;4893259;29;20809;-82
2022/03/28 12:40:50;;;;;;;31.53;27.33;;;;;;;;;;4910134;29;20995;-83
2022/03/28 12:43:17;;;;;;;30.33;27.30;;;;;;;;;;4892884;29;20452;-83
2022/03/28 12:45:44;;;;;;;33.17;29.60;;;;;;;;;;4887208;29;20445;-84
2022/03/28 12:48:11;;;;;;;32.50;28.40;;;;;;;;;;4892083;29;20803;-85
2022/03/28 12:50:50;;;;;;;31.37;28.03;;;;;;;;;;4911350;29;20452;-83
2022/03/28 12:53:16;;;;;;;33.30;29.57;;;;;;;;;;4892903;29;20428;-84
2022/03/28 12:55:44;;;;;;;29.07;26.07;;;;;;;;;;4909565;29;20511;-78
2022/03/28 12:58:15;;;;;;;29.73;26.37;;;;;;;;;;4916490;29;21151;-81
2022/03/28 13:00:43;;;;;;;32.33;29.10;;;;;;;;;;4906407;29;20464;-85
2022/03/28 13:03:09;;;;;;;29.80;26.87;;;;;;;;;;4897585;29;20451;-83
2022/03/28 13:05:36;;;;;;;29.53;26.27;;;;;;;;;;4889151;29;20452;-83
2022/03/28 13:08:05;;;;;;;33.27;29.90;;;;;;;;;;4892420;29;20524;-82
2022/03/28 13:10:38;;;;;;;35.40;28.80;;;;;;;;;;4895076;29;20500;-83
2022/03/28 13:13:05;;;;;;;29.63;26.53;;;;;;;;;;4897275;29;20783;-83
2022/03/28 13:15:32;;;;;;;30.67;27.70;;;;;;;;;;4895810;29;20445;-83
2022/03/28 13:18:06;;;;;;;32.47;26.43;;;;;;;;;;4913358;29;20420;-84
2022/03/28 13:20:48;;;;;;;29.60;25.20;;;;;;;;;;4918058;29;22589;-85
2022/03/28 13:23:26;;;;;;;25.83;23.20;;;;;;;;;;4897865;29;20412;-85
2022/03/28 13:25:52;;;;;;;28.80;25.83;;;;;;;;;;4894976;29;20982;-83
2022/03/28 13:28:22;;;;;;;28.67;25.67;;;;;;;;;;4913874;29;20412;-82
2022/03/28 13:30:52;;;;;;;27.30;24.43;;;;;;;;;;4915665;29;20650;-83
2022/03/28 13:33:18;;;;;;;30.30;26.10;;;;;;;;;;4914718;29;20419;-82
2022/03/28 13:35:48;;;;;;;29.50;26.40;;;;;;;;;;4898548;29;20807;-82
2022/03/28 13:38:19;;;;;;;28.03;25.13;;;;;;;;;;4931971;29;20434;-81
2022/03/28 13:40:49;;;;;;;26.37;23.60;;;;;;;;;;4929200;29;20434;-82
2022/03/28 13:43:16;;;;;;;26.90;24.10;;;;;;;;;;4931455;29;20441;-80
2022/03/28 13:45:42;;;;;;;35.37;26.07;;;;;;;;;;4910778;29;20722;-84
2022/03/28 13:48:10;;;;;;;28.03;25.13;;;;;;;;;;4912646;29;20511;-85
2022/03/28 13:50:36;;;;;;;28.37;24.30;;;;;;;;;;4895152;29;20459;-81
2022/03/28 13:53:03;;;;;;;25.53;22.63;;;;;;;;;;4913033;29;20468;-84
2022/03/28 13:55:29;;;;;;;27.17;23.93;;;;;;;;;;4914461;29;20424;-85
2022/03/28 13:57:55;;;;;;;31.80;25.80;;;;;;;;;;4932840;29;20438;-84
2022/03/28 14:00:22;;;;;;;29.17;26.07;;;;;;;;;;4911934;29;20452;-84
2022/03/28 14:02:48;;;;;;;28.00;24.90;;;;;;;;;;4896979;29;20511;-83
2022/03/28 14:05:15;;;;;;;30.00;25.93;;;;;;;;;;4893175;29;20920;-83
2022/03/28 14:07:41;;;;;;;29.20;24.13;;;;;;;;;;4894228;29;20845;-83
2022/03/28 14:10:07;;;;;;;27.53;23.63;;;;;;;;;;4897461;29;20539;-79
2022/03/28 14:12:34;;;;;;;27.70;23.50;;;;;;;;;;4896087;29;20460;-83
2022/03/28 14:15:01;;;;;;;28.03;22.37;;;;;;;;;;4912311;29;20471;-84
2022/03/28 14:17:28;;;;;;;28.10;23.70;;;;;;;;;;4894993;29;20444;-82
2022/03/28 14:19:55;;;;;;;28.50;22.43;;;;;;;;;;4913876;29;20443;-83
2022/03/28 14:22:22;;;;;;;30.20;25.63;;;;;;;;;;4913969;29;20833;-84
2022/03/28 14:24:49;;;;;;;29.30;24.10;;;;;;;;;;4895973;29;20543;-81
2022/03/28 14:27:15;;;;;;;27.93;23.10;;;;;;;;;;4912125;29;20440;-84
2022/03/28 14:29:44;;;;;;;30.83;25.97;;;;;;;;;;4899468;29;20511;-78
2022/03/28 14:32:10;;;;;;;27.67;24.70;;;;;;;;;;4912040;29;20519;-80